Impacts TAF Board INFO
FOR SITUATIONAL AWARENESS. NOT TO BE USED FOR FLIGHT PLANNING PURPOSES.
IDs:

KCLE - Cleveland/Hopkins In, OH, US

Issued at 1548 UTC 22 May 2018
Updated at 1725 UTC 22 May 2018
Potential Impact None Slight Moderate High
Time<<23/06Z 23/07Z 23/08Z 23/09Z 23/10Z 23/11Z 23/12Z 23/13Z 23/14Z 23/15Z 23/16Z 23/17Z 23/18Z>>
Type PRVL PRVL PRVL PRVL PRVL PRVL PRVL PRVL PRVL PRVL PRVL PRVL
VIS >6 >6 >6 >6 >6 >6 >6 >6 >6 >6 >6 >6
CIG 12 12 12 12 12 12 12 12 12 12 12 12
Cover OVC OVC OVC OVC OVC OVC OVC OVC OVC OVC OVC OVC
FltCat MVFR MVFR MVFR MVFR MVFR MVFR MVFR MVFR MVFR MVFR MVFR MVFR
WX -- -- -- -- -- -- -- -- -- -- -- --
WDir 360 360 360 360 360 360 360 360 360 360 360 360
WSpd 6 6 6 6 6 6 6 6 6 6 6 6
WGst -- -- -- -- -- -- -- -- -- -- -- --

Raw TAF
KCLE 221548Z 2216/2318 24010KT P6SM SCT012 OVC025
  TEMPO 2216/2218 2SM -SHRA BKN012
  FM221800 29010KT P6SM VCTS OVC025CB
  FM222200 31008KT P6SM OVC025
  FM230300 36006KT P6SM OVC012


METAR Board
Radar Display
Forecast Discussion

FOR SITUATIONAL AWARENESS. NOT TO BE USED FOR FLIGHT PLANNING PURPOSES.